Time;durP1;ratioP1;P1;durP2;ratioP2;P2;SDS_P1;SDS_P2;PMS_P1;PMS_P2;Temp;Humidity;BMP_temperature;BMP_pressure;BME280_temperature;BME280_humidity;BME280_pressure;Samples;Min_cycle;Max_cycle;Signal;HPM_P1;HPM_P2
2021/06/06 00:00:58;;;;;;;20.90;15.57;;;15.50;99.90;;;;;;5054098;28;20029;-89
2021/06/06 00:03:28;;;;;;;21.65;15.75;;;15.50;99.90;;;;;;5053912;28;20028;-89
2021/06/06 00:06:03;;;;;;;20.73;15.00;;;15.50;99.90;;;;;;5053870;28;20037;-89
2021/06/06 00:08:29;;;;;;;19.85;15.00;;;15.50;99.90;;;;;;5053700;28;20051;-87
2021/06/06 00:11:03;;;;;;;21.92;16.00;;;15.40;99.90;;;;;;5053722;28;20440;-89
2021/06/06 00:13:29;;;;;;;22.52;15.90;;;15.40;99.90;;;;;;5053842;28;20159;-89
2021/06/06 00:15:55;;;;;;;21.42;16.45;;;15.30;99.90;;;;;;5053957;28;20071;-89
2021/06/06 00:18:21;;;;;;;23.45;16.98;;;15.40;99.90;;;;;;5053903;28;20021;-89
2021/06/06 00:20:47;;;;;;;23.05;17.40;;;15.30;99.90;;;;;;5053730;28;20023;-89
2021/06/06 00:23:13;;;;;;;22.05;16.75;;;15.30;99.90;;;;;;5053724;28;20072;-89
2021/06/06 00:25:39;;;;;;;23.27;16.58;;;15.40;99.90;;;;;;5053621;28;20028;-89
2021/06/06 00:28:05;;;;;;;24.63;17.65;;;15.40;99.90;;;;;;5053328;28;20025;-89
2021/06/06 00:30:31;;;;;;;20.52;17.55;;;15.30;99.90;;;;;;5053470;28;20473;-90
2021/06/06 00:32:58;;;;;;;25.38;18.17;;;15.20;99.90;;;;;;5052862;28;20029;-89
2021/06/06 00:35:24;;;;;;;26.92;18.42;;;15.20;99.90;;;;;;5053323;28;20393;-89
2021/06/06 00:37:50;;;;;;;22.63;17.55;;;15.20;99.90;;;;;;5053162;28;20021;-89
2021/06/06 00:40:21;;;;;;;27.60;18.40;;;15.20;99.90;;;;;;5053326;28;20584;-87
2021/06/06 00:42:47;;;;;;;28.20;18.40;;;15.20;99.90;;;;;;5053408;28;20021;-88
2021/06/06 00:45:16;;;;;;;22.88;18.45;;;15.20;99.90;;;;;;5053494;28;20028;-88
2021/06/06 00:47:42;;;;;;;25.00;19.10;;;15.10;99.90;;;;;;5053232;28;20074;-88
2021/06/06 00:50:12;;;;;;;25.83;19.38;;;15.00;99.90;;;;;;5054884;28;20060;-88
2021/06/06 00:52:39;;;;;;;25.25;18.77;;;15.00;99.90;;;;;;5053301;28;20033;-88
2021/06/06 00:55:08;;;;;;;26.42;19.17;;;14.90;99.90;;;;;;5053563;28;20501;-88
2021/06/06 00:57:36;;;;;;;26.20;20.23;;;14.80;99.90;;;;;;5053386;28;20045;-88
2021/06/06 01:00:33;;;;;;;27.10;19.83;;;14.70;99.90;;;;;;5053280;28;20028;-87
2021/06/06 01:03:00;;;;;;;31.55;22.95;;;14.70;99.90;;;;;;5039511;28;20033;-88
2021/06/06 01:05:35;;;;;;;30.58;23.52;;;14.60;99.90;;;;;;5055020;28;20029;-88
2021/06/06 01:08:06;;;;;;;35.38;24.95;;;14.60;99.90;;;;;;5057008;28;20023;-88
2021/06/06 01:10:33;;;;;;;34.83;26.33;;;14.50;99.90;;;;;;5057164;28;20063;-88
2021/06/06 01:13:10;;;;;;;37.35;27.48;;;14.40;99.90;;;;;;5058169;28;20033;-88
2021/06/06 01:15:37;;;;;;;37.22;27.13;;;14.40;99.90;;;;;;5057373;28;20055;-88
2021/06/06 01:18:24;;;;;;;40.53;27.58;;;14.30;99.90;;;;;;5057046;28;20071;-88
2021/06/06 01:21:04;;;;;;;39.15;28.25;;;14.20;99.90;;;;;;5058185;28;20028;-89
2021/06/06 01:23:51;;;;;;;38.45;28.85;;;14.30;99.90;;;;;;5057144;28;20037;-89
2021/06/06 01:26:38;;;;;;;41.13;28.70;;;14.40;99.90;;;;;;5057882;28;20090;-88
2021/06/06 01:29:09;;;;;;;44.22;30.60;;;14.20;99.90;;;;;;5056852;28;20048;-88
2021/06/06 01:31:39;;;;;;;40.03;29.80;;;14.10;99.90;;;;;;5058188;28;20029;-87
2021/06/06 01:34:08;;;;;;;43.65;30.30;;;14.10;99.90;;;;;;5056636;28;20379;-87
2021/06/06 01:36:40;;;;;;;45.92;31.15;;;14.00;99.90;;;;;;5056816;28;20045;-88
2021/06/06 01:39:26;;;;;;;43.83;32.03;;;13.90;99.90;;;;;;5056807;28;20432;-88
2021/06/06 01:41:59;;;;;;;44.20;32.45;;;13.50;99.90;;;;;;5056679;28;20032;-88
2021/06/06 01:44:29;;;;;;;46.22;31.90;;;13.50;99.90;;;;;;5056795;28;20393;-89
2021/06/06 01:47:11;;;;;;;50.50;32.78;;;13.40;99.90;;;;;;5056791;28;20028;-88
2021/06/06 01:49:50;;;;;;;48.50;33.67;;;13.40;99.90;;;;;;5056166;28;20078;-89
2021/06/06 01:52:17;;;;;;;49.20;33.83;;;13.40;99.90;;;;;;5056176;28;20432;-88
2021/06/06 01:54:44;;;;;;;45.65;30.88;;;13.40;99.90;;;;;;5056369;28;20018;-89
2021/06/06 01:57:16;;;;;;;46.45;33.03;;;13.30;99.90;;;;;;5056101;28;20047;-89
2021/06/06 01:59:46;;;;;;;50.83;33.10;;;13.20;99.90;;;;;;5056020;28;20032;-89
2021/06/06 02:02:12;;;;;;;46.65;33.08;;;13.10;99.90;;;;;;5056165;28;20044;-89
2021/06/06 02:04:39;;;;;;;49.17;33.80;;;13.00;99.90;;;;;;5056198;28;20025;-89
2021/06/06 02:07:07;;;;;;;50.10;34.13;;;13.10;99.90;;;;;;5055854;28;20032;-90
2021/06/06 02:09:37;;;;;;;48.63;33.97;;;13.00;99.90;;;;;;5055978;28;20025;-90
2021/06/06 02:12:07;;;;;;;50.45;34.78;;;13.10;99.90;;;;;;5055942;28;20500;-90
2021/06/06 02:14:42;;;;;;;51.70;35.05;;;13.10;99.90;;;;;;5057079;28;20025;-89
2021/06/06 02:17:20;;;;;;;51.92;35.00;;;13.10;99.90;;;;;;5055526;28;20120;-90
2021/06/06 02:19:46;;;;;;;45.08;32.97;;;13.00;99.90;;;;;;5055752;28;20025;-89
2021/06/06 02:22:15;;;;;;;52.00;36.80;;;12.90;99.90;;;;;;5055277;28;20033;-90
2021/06/06 02:24:41;;;;;;;51.38;34.38;;;12.70;99.90;;;;;;5055618;28;20047;-89
2021/06/06 02:27:33;;;;;;;50.72;33.35;;;12.60;99.90;;;;;;5054787;28;20025;-89
2021/06/06 02:30:10;;;;;;;55.60;35.78;;;12.60;99.90;;;;;;5039979;28;20106;-90
2021/06/06 02:33:02;;;;;;;61.50;37.95;;;12.70;99.90;;;;;;5055321;28;20544;-90
2021/06/06 02:35:31;;;;;;;63.25;40.40;;;12.70;99.90;;;;;;5055403;28;20025;-91
2021/06/06 02:38:11;;;;;;;62.08;38.05;;;12.80;99.90;;;;;;5055023;28;20024;-89
2021/06/06 02:40:50;;;;;;;59.00;39.72;;;12.70;99.90;;;;;;5054970;28;20472;-90
2021/06/06 02:43:22;;;;;;;59.80;39.00;;;12.60;99.90;;;;;;5055773;28;20032;-90
2021/06/06 02:45:50;;;;;;;62.47;40.38;;;12.60;99.90;;;;;;5055232;28;20048;-91
2021/06/06 02:48:24;;;;;;;59.45;37.83;;;12.60;99.90;;;;;;5055009;28;20033;-90
2021/06/06 02:50:50;;;;;;;52.67;36.63;;;12.60;99.90;;;;;;5055174;28;20115;-90
2021/06/06 02:53:39;;;;;;;53.20;35.63;;;12.60;99.90;;;;;;5055341;28;20037;-90
2021/06/06 02:56:14;;;;;;;53.50;36.63;;;12.60;99.90;;;;;;5055855;28;20021;-90
2021/06/06 02:58:53;;;;;;;62.40;38.67;;;12.60;99.90;;;;;;5055500;28;20021;-90
2021/06/06 03:01:30;;;;;;;58.17;39.67;;;12.70;99.90;;;;;;5055624;28;20035;-90
2021/06/06 03:03:58;;;;;;;56.67;38.33;;;12.70;99.90;;;;;;5055300;28;20077;-90
2021/06/06 03:06:33;;;;;;;62.70;40.03;;;12.80;99.90;;;;;;5055301;28;20033;-90
2021/06/06 03:08:59;;;;;;;57.17;38.45;;;12.80;99.90;;;;;;5055003;28;20486;-90
2021/06/06 03:11:27;;;;;;;60.15;40.63;;;12.80;99.90;;;;;;5055047;28;20025;-90
2021/06/06 03:14:07;;;;;;;60.80;39.80;;;12.70;99.90;;;;;;5054093;28;20024;-89
2021/06/06 03:16:38;;;;;;;62.67;40.13;;;12.60;99.90;;;;;;5054221;28;20063;-89
2021/06/06 03:19:05;;;;;;;72.90;45.00;;;12.60;99.90;;;;;;5055755;28;20032;-90
2021/06/06 03:21:37;;;;;;;64.57;39.75;;;12.60;99.90;;;;;;5054603;28;20112;-90
2021/06/06 03:24:11;;;;;;;63.90;39.70;;;12.60;99.90;;;;;;5054233;28;20043;-90
2021/06/06 03:26:38;;;;;;;62.30;40.58;;;12.50;99.90;;;;;;5054017;28;20020;-89
2021/06/06 03:29:07;;;;;;;60.97;40.85;;;12.40;99.90;;;;;;5053778;28;20025;-90
2021/06/06 03:31:42;;;;;;;59.40;40.28;;;12.40;99.90;;;;;;5054319;28;20496;-90
2021/06/06 03:34:08;;;;;;;63.58;41.63;;;12.50;99.90;;;;;;5053959;28;20028;-90
2021/06/06 03:36:40;;;;;;;58.83;39.08;;;12.50;99.90;;;;;;5054452;28;20470;-90
2021/06/06 03:39:12;;;;;;;51.00;37.30;;;12.30;99.90;;;;;;5054285;28;20025;-92
2021/06/06 03:41:38;;;;;;;63.20;38.03;;;12.10;99.90;;;;;;5053170;28;20076;-91
2021/06/06 03:44:05;;;;;;;53.40;36.00;;;12.10;99.90;;;;;;5053986;28;20021;-91
2021/06/06 03:46:33;;;;;;;61.08;40.40;;;12.10;99.90;;;;;;5054595;28;20021;-90
2021/06/06 03:48:59;;;;;;;57.97;38.15;;;12.10;99.90;;;;;;5054319;28;20531;-90
2021/06/06 03:51:27;;;;;;;65.30;40.58;;;12.10;99.90;;;;;;5053843;28;20401;-90
2021/06/06 03:53:54;;;;;;;61.15;38.97;;;12.10;99.90;;;;;;5053847;28;20029;-90
2021/06/06 03:56:20;;;;;;;62.20;41.13;;;12.10;99.90;;;;;;5053714;28;20021;-91
2021/06/06 03:58:46;;;;;;;65.72;40.85;;;12.20;99.90;;;;;;5053776;28;20384;-90
2021/06/06 04:01:11;;;;;;;60.63;40.60;;;12.30;99.90;;;;;;5053563;28;20017;-90
2021/06/06 04:03:37;;;;;;;60.17;39.38;;;12.30;99.90;;;;;;5053802;28;20019;-91
2021/06/06 04:06:04;;;;;;;54.10;36.88;;;12.40;99.90;;;;;;5053748;28;20116;-89
2021/06/06 04:08:30;;;;;;;57.58;39.38;;;12.40;99.90;;;;;;5053483;28;20055;-90
2021/06/06 04:10:56;;;;;;;54.88;37.50;;;12.60;99.90;;;;;;5052975;28;20065;-90
2021/06/06 04:13:22;;;;;;;51.80;35.95;;;12.70;99.90;;;;;;5053410;28;20053;-90
2021/06/06 04:15:49;;;;;;;56.00;37.03;;;12.80;99.90;;;;;;5053280;28;20035;-90
2021/06/06 04:18:24;;;;;;;59.47;38.78;;;12.80;99.90;;;;;;5053700;28;20107;-90
2021/06/06 04:20:53;;;;;;;60.50;38.97;;;12.90;99.90;;;;;;5053353;28;20075;-90
2021/06/06 04:23:20;;;;;;;56.20;37.28;;;12.90;99.90;;;;;;5053525;28;20064;-90
2021/06/06 04:25:47;;;;;;;54.70;37.72;;;12.90;99.90;;;;;;5053561;28;20025;-90
2021/06/06 04:28:13;;;;;;;60.53;38.05;;;12.90;99.90;;;;;;5053988;28;20370;-90
2021/06/06 04:30:39;;;;;;;51.35;34.58;;;12.80;99.90;;;;;;5053314;28;20032;-91
2021/06/06 04:33:08;;;;;;;45.83;31.77;;;12.80;99.90;;;;;;5053569;28;20037;-90
2021/06/06 04:35:36;;;;;;;52.50;34.15;;;12.60;99.90;;;;;;5053372;28;20021;-90
2021/06/06 04:38:02;;;;;;;49.92;32.50;;;12.50;99.90;;;;;;5053646;28;20748;-90
2021/06/06 04:40:28;;;;;;;51.97;35.00;;;12.60;99.90;;;;;;5055745;28;20362;-90
2021/06/06 04:42:54;;;;;;;52.97;35.85;;;12.90;99.90;;;;;;5058948;28;20079;-91
2021/06/06 04:45:20;;;;;;;49.88;36.83;;;13.00;99.90;;;;;;5057420;28;20029;-90
2021/06/06 04:47:46;;;;;;;52.38;37.05;;;12.90;99.90;;;;;;5057408;28;20009;-90
2021/06/06 04:50:13;;;;;;;52.15;36.67;;;12.90;99.90;;;;;;5057526;28;20384;-91
2021/06/06 04:52:38;;;;;;;51.05;35.58;;;12.90;99.90;;;;;;5057880;28;20013;-90
2021/06/06 04:55:08;;;;;;;51.30;36.30;;;12.80;99.90;;;;;;5056812;28;20029;-90
2021/06/06 04:57:34;;;;;;;53.10;35.28;;;12.80;99.90;;;;;;5057175;28;20482;-90
2021/06/06 05:00:00;;;;;;;54.97;36.78;;;12.80;99.90;;;;;;5057330;28;20082;-91
2021/06/06 05:02:26;;;;;;;51.58;36.83;;;12.80;99.90;;;;;;5057045;28;20029;-92
2021/06/06 05:04:52;;;;;;;49.53;34.25;;;12.90;99.90;;;;;;5056884;28;20025;-92
2021/06/06 05:07:18;;;;;;;48.00;33.67;;;12.90;99.90;;;;;;5057205;28;20088;-91
2021/06/06 05:09:44;;;;;;;51.28;35.78;;;12.90;99.90;;;;;;5057010;28;20489;-89
2021/06/06 05:12:10;;;;;;;53.95;37.03;;;13.00;99.90;;;;;;5056564;28;20032;-92
2021/06/06 05:14:36;;;;;;;49.53;35.65;;;13.00;99.90;;;;;;5057964;28;20418;-89
2021/06/06 05:17:03;;;;;;;53.65;37.53;;;13.10;99.90;;;;;;5056872;28;20049;-89
2021/06/06 05:19:29;;;;;;;57.17;38.60;;;13.20;99.90;;;;;;5056895;28;20052;-89
2021/06/06 05:21:54;;;;;;;53.05;35.90;;;13.40;99.90;;;;;;5056448;28;20482;-87
2021/06/06 05:24:20;;;;;;;55.03;36.97;;;13.60;99.90;;;;;;5056486;28;20072;-89
2021/06/06 05:26:46;;;;;;;48.00;35.25;;;13.70;99.90;;;;;;5057578;28;20033;-89
2021/06/06 05:29:11;;;;;;;45.88;35.35;;;13.80;99.90;;;;;;5057879;28;20048;-87
2021/06/06 05:31:37;;;;;;;47.20;35.20;;;13.90;99.90;;;;;;5057045;28;20033;-88
2021/06/06 05:34:03;;;;;;;47.75;34.58;;;13.90;99.90;;;;;;5056094;28;20032;-88
2021/06/06 05:36:30;;;;;;;45.65;34.55;;;14.00;99.90;;;;;;5056498;28;20025;-88
2021/06/06 05:38:55;;;;;;;42.55;32.97;;;14.00;99.90;;;;;;5057235;28;20124;-89
2021/06/06 05:41:21;;;;;;;41.58;32.55;;;14.00;99.90;;;;;;5057036;28;20090;-90
2021/06/06 05:43:47;;;;;;;46.20;32.95;;;14.00;99.90;;;;;;5057522;28;20028;-90
2021/06/06 05:46:17;;;;;;;45.95;33.70;;;14.00;99.90;;;;;;5057477;28;20382;-90
2021/06/06 05:48:43;;;;;;;46.95;33.45;;;14.00;99.90;;;;;;5058633;28;20075;-91
2021/06/06 05:51:09;;;;;;;48.15;33.53;;;14.00;99.90;;;;;;5057156;28;20025;-90
2021/06/06 05:53:36;;;;;;;40.95;31.92;;;14.10;99.90;;;;;;5059090;28;20196;-91
2021/06/06 05:56:04;;;;;;;45.40;31.30;;;14.20;99.90;;;;;;5058516;28;20024;-91
2021/06/06 05:58:30;;;;;;;43.55;31.42;;;14.30;99.90;;;;;;5057441;28;20025;-90
2021/06/06 06:00:56;;;;;;;42.13;31.83;;;14.40;99.90;;;;;;5056352;28;20047;-90
2021/06/06 06:03:22;;;;;;;42.38;30.58;;;14.40;99.90;;;;;;5057208;28;20055;-90
2021/06/06 06:05:48;;;;;;;45.92;30.67;;;14.50;99.90;;;;;;5056954;28;20025;-89
2021/06/06 06:08:21;;;;;;;40.63;30.67;;;14.70;99.90;;;;;;5057204;28;20009;-90
2021/06/06 06:10:48;;;;;;;37.78;28.60;;;14.70;99.90;;;;;;5058265;28;20032;-92
2021/06/06 06:13:16;;;;;;;42.85;29.65;;;14.60;99.90;;;;;;5057263;28;20096;-91
2021/06/06 06:15:41;;;;;;;36.53;28.55;;;14.70;99.90;;;;;;5057266;28;20082;-91
2021/06/06 06:18:09;;;;;;;41.42;27.77;;;14.70;99.90;;;;;;5058202;28;20056;-91
2021/06/06 06:20:35;;;;;;;38.17;28.95;;;14.90;99.90;;;;;;5058647;28;20047;-92
2021/06/06 06:23:01;;;;;;;41.83;26.95;;;15.00;99.90;;;;;;5057528;28;20455;-89
2021/06/06 06:25:27;;;;;;;34.45;25.90;;;15.20;99.90;;;;;;5059677;28;20029;-88
2021/06/06 06:27:53;;;;;;;31.30;23.50;;;15.30;99.90;;;;;;5055958;28;20055;-89
2021/06/06 06:30:25;;;;;;;35.53;25.45;;;15.40;99.90;;;;;;5056751;28;20032;-89
2021/06/06 06:32:51;;;;;;;32.63;25.52;;;15.60;99.90;;;;;;5056731;28;20064;-89
2021/06/06 06:35:18;;;;;;;35.03;25.73;;;15.70;99.90;;;;;;5056310;28;20029;-89
2021/06/06 06:37:44;;;;;;;33.15;23.55;;;15.60;99.90;;;;;;5057321;28;20040;-89
2021/06/06 06:40:12;;;;;;;26.85;20.50;;;16.00;99.90;;;;;;5056389;28;20108;-88
2021/06/06 06:42:39;;;;;;;32.80;20.33;;;17.10;99.90;;;;;;5056302;28;20032;-88
2021/06/06 06:45:12;;;;;;;27.63;18.48;;;18.70;99.90;;;;;;5055591;28;20029;-88
2021/06/06 06:47:38;;;;;;;22.95;16.58;;;20.40;99.90;;;;;;5055550;28;20031;-87
2021/06/06 06:50:07;;;;;;;20.88;16.15;;;21.80;99.90;;;;;;5055623;28;20111;-87
2021/06/06 06:52:36;;;;;;;21.52;16.58;;;23.30;99.90;;;;;;5056091;28;20063;-88
2021/06/06 06:55:07;;;;;;;23.15;17.17;;;24.60;97.00;;;;;;5055486;28;20108;-86
2021/06/06 06:57:32;;;;;;;21.60;15.90;;;25.40;94.10;;;;;;5055954;28;20021;-87
2021/06/06 06:59:58;;;;;;;17.45;15.30;;;25.90;90.30;;;;;;5055525;28;20029;-87
2021/06/06 07:02:24;;;;;;;17.92;13.80;;;26.10;86.80;;;;;;5054037;28;20547;-87
2021/06/06 07:04:51;;;;;;;18.52;14.35;;;27.00;83.60;;;;;;5055986;28;20025;-87
2021/06/06 07:07:16;;;;;;;13.82;12.23;;;26.60;80.80;;;;;;5055470;28;20017;-88
2021/06/06 07:09:42;;;;;;;14.27;12.10;;;24.90;82.50;;;;;;5055816;28;20028;-88
2021/06/06 07:12:08;;;;;;;17.77;12.23;;;24.60;85.30;;;;;;5056549;28;20029;-87
2021/06/06 07:14:34;;;;;;;14.07;11.30;;;25.20;83.00;;;;;;5055360;28;20021;-87
2021/06/06 07:17:00;;;;;;;15.85;11.60;;;25.70;79.50;;;;;;5055046;28;20450;-87
2021/06/06 07:19:26;;;;;;;12.48;10.15;;;26.30;77.70;;;;;;5054693;28;20082;-87
2021/06/06 07:21:52;;;;;;;11.93;10.70;;;26.60;74.40;;;;;;5054070;28;20031;-87
2021/06/06 07:24:17;;;;;;;13.18;11.30;;;26.50;76.10;;;;;;5053915;28;20119;-87
2021/06/06 07:26:46;;;;;;;14.52;11.23;;;26.40;74.10;;;;;;5055058;28;20036;-87
2021/06/06 07:29:16;;;;;;;12.32;10.90;;;26.00;74.80;;;;;;5054545;28;20362;-87
2021/06/06 07:31:43;;;;;;;13.85;11.10;;;24.60;78.50;;;;;;5054361;28;20021;-86
2021/06/06 07:34:09;;;;;;;13.65;11.25;;;24.10;81.60;;;;;;5053649;28;20477;-87
2021/06/06 07:36:35;;;;;;;16.00;11.50;;;24.70;79.10;;;;;;5053621;28;20021;-87
2021/06/06 07:39:02;;;;;;;12.45;10.57;;;25.40;78.00;;;;;;5054623;28;20096;-87
2021/06/06 07:41:28;;;;;;;14.35;10.48;;;25.60;75.80;;;;;;5054231;28;20024;-87
2021/06/06 07:43:57;;;;;;;14.65;9.73;;;26.00;74.90;;;;;;5054883;28;20028;-86
2021/06/06 07:46:22;;;;;;;11.73;10.48;;;26.00;74.10;;;;;;5053984;28;20032;-86
2021/06/06 07:48:48;;;;;;;12.07;9.35;;;25.20;75.50;;;;;;5053984;28;20516;-87
2021/06/06 07:51:14;;;;;;;12.50;9.55;;;24.60;77.30;;;;;;5053701;28;20078;-87
2021/06/06 07:53:40;;;;;;;11.13;9.77;;;23.90;79.20;;;;;;5053174;28;20478;-87
2021/06/06 07:56:05;;;;;;;13.25;10.00;;;23.70;80.80;;;;;;5053886;28;20025;-88
2021/06/06 07:58:38;;;;;;;14.10;11.00;;;23.80;79.10;;;;;;5054497;28;20499;-88
2021/06/06 08:01:06;;;;;;;13.35;10.45;;;24.10;80.90;;;;;;5054910;28;20063;-88
2021/06/06 08:03:32;;;;;;;14.32;10.13;;;24.80;77.80;;;;;;5053514;28;20064;-88
2021/06/06 08:06:00;;;;;;;11.32;10.02;;;25.50;75.70;;;;;;5055556;28;20024;-88
2021/06/06 08:08:26;;;;;;;14.52;10.25;;;26.00;75.50;;;;;;5053801;28;20098;-88
2021/06/06 08:10:54;;;;;;;12.73;10.40;;;26.00;74.00;;;;;;5053596;28;20025;-88
2021/06/06 08:13:21;;;;;;;10.95;9.00;;;26.30;73.30;;;;;;5053498;28;20036;-87
2021/06/06 08:15:47;;;;;;;11.48;9.82;;;27.50;69.50;;;;;;5053259;28;20052;-87
2021/06/06 08:18:17;;;;;;;11.13;9.15;;;27.30;66.50;;;;;;5053942;28;20120;-88
2021/06/06 08:20:55;;;;;;;11.18;9.55;;;27.20;67.30;;;;;;5055899;28;20104;-87
2021/06/06 08:23:21;;;;;;;11.63;9.35;;;26.70;67.40;;;;;;5053509;28;20045;-87
2021/06/06 08:25:48;;;;;;;11.30;9.18;;;26.50;70.60;;;;;;5053484;28;20021;-87
2021/06/06 08:28:16;;;;;;;11.35;10.25;;;26.70;67.90;;;;;;5053881;28;20132;-88
2021/06/06 08:30:46;;;;;;;10.75;9.23;;;25.90;69.90;;;;;;5054024;28;20040;-88
2021/06/06 08:33:12;;;;;;;9.82;8.82;;;25.70;71.60;;;;;;5053954;28;20474;-89
2021/06/06 08:35:38;;;;;;;15.13;10.15;;;26.00;70.60;;;;;;5052922;28;20021;-88
2021/06/06 08:38:05;;;;;;;10.90;9.68;;;26.30;69.80;;;;;;5053276;28;20028;-87
2021/06/06 08:40:53;;;;;;;12.00;9.95;;;26.40;68.40;;;;;;5053228;28;20035;-87
2021/06/06 08:43:21;;;;;;;11.15;9.70;;;25.90;69.30;;;;;;5054214;28;20428;-87
2021/06/06 08:45:56;;;;;;;11.15;9.25;;;26.00;69.40;;;;;;5053167;28;20021;-87
2021/06/06 08:48:22;;;;;;;10.30;9.20;;;26.00;69.80;;;;;;5053341;28;20127;-88
2021/06/06 08:50:58;;;;;;;10.32;9.23;;;26.10;69.00;;;;;;5052554;28;20074;-88
2021/06/06 08:53:50;;;;;;;10.15;9.15;;;26.00;69.50;;;;;;5052516;28;20044;-88
2021/06/06 08:56:22;;;;;;;10.57;9.52;;;25.80;70.20;;;;;;5054291;28;20844;-88
2021/06/06 08:58:53;;;;;;;12.27;10.02;;;26.40;68.70;;;;;;5057468;28;20752;-88
2021/06/06 09:01:30;;;;;;;16.80;9.65;;;26.60;69.50;;;;;;5056705;28;20432;-89
2021/06/06 09:03:58;;;;;;;10.57;9.50;;;25.80;70.30;;;;;;5055836;28;20029;-88
2021/06/06 09:06:40;;;;;;;11.52;10.38;;;25.90;71.50;;;;;;5054813;28;20029;-88
2021/06/06 09:09:08;;;;;;;11.75;10.20;;;26.60;69.20;;;;;;5055648;28;20044;-89
2021/06/06 09:11:34;;;;;;;13.18;10.27;;;27.00;68.30;;;;;;5053128;28;20029;-87
2021/06/06 09:13:59;;;;;;;13.20;11.90;;;27.10;68.20;;;;;;5053334;28;20086;-88
2021/06/06 09:16:50;;;;;;;12.48;9.90;;;26.00;69.40;;;;;;5053869;28;20032;-88
2021/06/06 09:19:17;;;;;;;11.45;9.32;;;26.30;69.90;;;;;;5054062;28;20036;-89
2021/06/06 09:22:10;;;;;;;13.00;10.05;;;26.00;70.20;;;;;;5052571;28;20421;-88
2021/06/06 09:24:41;;;;;;;11.80;10.60;;;26.50;70.20;;;;;;5050280;28;20116;-88
2021/06/06 09:27:22;;;;;;;13.52;11.23;;;26.60;68.60;;;;;;5059932;28;20017;-88
2021/06/06 09:30:03;;;;;;;11.23;8.90;;;27.70;67.40;;;;;;5057111;28;20108;-88
2021/06/06 09:32:30;;;;;;;10.45;9.35;;;27.60;64.50;;;;;;5056833;28;20073;-88
2021/06/06 09:34:55;;;;;;;10.35;9.35;;;27.00;64.90;;;;;;5058327;28;20040;-87
2021/06/06 09:37:26;;;;;;;9.93;8.93;;;26.20;64.10;;;;;;5059686;28;20025;-87
2021/06/06 09:39:59;;;;;;;11.23;10.13;;;26.50;65.20;;;;;;5058086;28;20044;-87
2021/06/06 09:42:39;;;;;;;12.85;11.38;;;26.00;68.30;;;;;;5059614;28;20621;-88
2021/06/06 09:45:10;;;;;;;12.68;10.35;;;27.20;66.50;;;;;;5060427;28;20116;-88
2021/06/06 09:47:36;;;;;;;13.73;10.90;;;27.40;64.70;;;;;;5059177;28;20440;-88
2021/06/06 09:50:20;;;;;;;10.20;9.18;;;27.20;64.50;;;;;;5055995;28;20025;-88
2021/06/06 09:52:47;;;;;;;9.52;8.25;;;26.60;64.10;;;;;;5057285;28;20025;-88
2021/06/06 09:55:19;;;;;;;8.98;7.70;;;26.20;64.10;;;;;;5057177;28;20028;-89
2021/06/06 09:57:45;;;;;;;;;;;26.70;65.00;;;;;;5057075;28;20371;-87
2021/06/06 10:00:11;;;;;;;9.55;8.55;;;27.30;63.50;;;;;;5055620;28;19905;-87
2021/06/06 10:02:48;;;;;;;7.88;7.03;;;26.50;63.60;;;;;;5055910;28;20457;-87
2021/06/06 10:05:26;;;;;;;7.55;6.57;;;26.50;63.50;;;;;;5056349;28;20025;-87
2021/06/06 10:08:01;;;;;;;8.07;6.88;;;27.10;61.60;;;;;;5055648;28;20021;-87
2021/06/06 10:10:32;;;;;;;8.85;7.95;;;27.30;59.70;;;;;;5056424;28;20032;-87
2021/06/06 10:13:02;;;;;;;8.70;7.80;;;27.90;58.70;;;;;;5056965;28;20171;-88
2021/06/06 10:15:50;;;;;;;11.32;8.82;;;27.70;60.00;;;;;;5055457;28;20381;-88
2021/06/06 10:18:22;;;;;;;10.13;9.10;;;27.90;60.00;;;;;;5056380;28;20381;-88
2021/06/06 10:21:01;;;;;;;11.15;8.27;;;28.20;58.50;;;;;;5054958;28;20021;-87
2021/06/06 10:23:38;;;;;;;7.72;6.93;;;28.30;58.60;;;;;;5055782;28;20047;-89
2021/06/06 10:26:32;;;;;;;7.90;6.68;;;27.80;58.80;;;;;;5055974;28;20473;-89
2021/06/06 10:29:05;;;;;;;8.90;7.93;;;28.00;57.90;;;;;;5055279;28;20025;-88
2021/06/06 10:31:37;;;;;;;10.45;8.05;;;27.90;58.60;;;;;;5056222;28;20087;-88
2021/06/06 10:34:15;;;;;;;;;;;28.40;57.80;;;;;;5056154;28;20551;-89
2021/06/06 10:36:41;;;;;;;9.10;8.15;;;28.30;58.40;;;;;;5054936;28;19911;-89
2021/06/06 10:39:22;;;;;;;10.88;8.07;;;29.10;57.00;;;;;;5054980;28;20029;-86
2021/06/06 10:42:03;;;;;;;7.25;6.50;;;29.90;55.60;;;;;;5055925;28;20112;-88
2021/06/06 10:44:38;;;;;;;6.03;4.88;;;29.30;55.80;;;;;;5055570;28;20104;-89
2021/06/06 10:47:41;;;;;;;4.90;3.90;;;28.60;54.10;;;;;;5054714;28;20470;-89
2021/06/06 10:50:31;;;;;;;4.10;3.80;;;27.80;54.60;;;;;;5054380;28;20031;-89
2021/06/06 10:53:23;;;;;;;6.15;5.25;;;27.30;54.40;;;;;;5055807;28;20028;-88
2021/06/06 10:55:49;;;;;;;7.38;6.15;;;27.30;56.40;;;;;;5055860;28;20021;-88
2021/06/06 10:58:26;;;;;;;5.72;5.22;;;27.40;56.00;;;;;;5055246;28;20021;-88
2021/06/06 11:01:09;;;;;;;9.20;6.13;;;26.90;55.70;;;;;;5055281;28;20025;-88
2021/06/06 11:03:36;;;;;;;;;;;26.90;57.90;;;;;;5054950;28;20033;-88
2021/06/06 11:06:26;;;;;;;7.88;7.05;;;28.20;55.30;;;;;;5053770;28;19935;-88
2021/06/06 11:08:52;;;;;;;6.15;5.55;;;28.80;54.60;;;;;;5054181;28;20036;-86
2021/06/06 11:11:36;;;;;;;7.32;6.00;;;28.40;53.90;;;;;;5053788;28;20423;-86
2021/06/06 11:14:09;;;;;;;6.13;5.40;;;28.50;54.10;;;;;;5053987;28;20025;-86
2021/06/06 11:16:40;;;;;;;;;;;28.30;54.60;;;;;;5054787;28;20021;-86
2021/06/06 11:19:09;;;;;;;6.10;5.50;;;28.20;54.10;;;;;;5053884;28;19913;-86
2021/06/06 11:21:43;;;;;;;4.93;4.05;;;28.00;54.40;;;;;;5054032;28;20025;-86
2021/06/06 11:24:45;;;;;;;6.00;5.40;;;28.50;54.60;;;;;;5054396;28;20485;-87
2021/06/06 11:27:11;;;;;;;4.50;4.10;;;29.30;52.80;;;;;;5055706;28;20021;-88
2021/06/06 11:29:58;;;;;;;4.15;3.70;;;29.10;52.00;;;;;;5053846;28;20115;-88
2021/06/06 11:32:51;;;;;;;6.72;5.50;;;29.40;52.40;;;;;;5055889;28;20029;-88
2021/06/06 11:35:35;;;;;;;5.75;5.13;;;29.40;51.10;;;;;;5054510;28;20032;-89
2021/06/06 11:38:32;;;;;;;5.70;4.47;;;28.80;51.60;;;;;;5055212;28;20072;-88
2021/06/06 11:41:30;;;;;;;4.78;4.28;;;29.00;50.60;;;;;;5053935;28;20112;-88
2021/06/06 11:44:30;;;;;;;4.75;4.00;;;29.60;49.00;;;;;;5056677;28;20473;-88
2021/06/06 11:47:07;;;;;;;5.95;5.35;;;29.30;50.50;;;;;;5056129;28;20499;-88
2021/06/06 11:50:13;;;;;;;5.63;4.70;;;29.50;50.10;;;;;;5056346;28;20021;-88
2021/06/06 11:52:54;;;;;;;5.80;4.13;;;30.00;48.60;;;;;;5013392;28;20491;-88
2021/06/06 11:55:29;;;;;;;3.92;3.53;;;29.90;48.10;;;;;;5051386;28;20033;-87
2021/06/06 11:58:05;;;;;;;4.80;3.67;;;29.90;47.90;;;;;;5053279;28;20045;-87
2021/06/06 12:00:41;;;;;;;6.28;5.68;;;29.80;49.40;;;;;;5054937;28;20070;-89
2021/06/06 12:03:12;;;;;;;4.95;3.72;;;29.30;50.40;;;;;;5053503;28;20027;-88
2021/06/06 12:05:49;;;;;;;5.05;3.40;;;29.60;49.20;;;;;;5054363;28;20021;-88
2021/06/06 12:08:16;;;;;;;4.15;3.00;;;30.10;50.20;;;;;;5056195;28;20025;-88
2021/06/06 12:10:53;;;;;;;2.50;2.30;;;31.00;47.30;;;;;;5055851;28;20469;-87
2021/06/06 12:13:32;;;;;;;2.85;2.65;;;31.10;47.00;;;;;;5053993;28;20107;-88
2021/06/06 12:16:08;;;;;;;2.85;2.05;;;30.70;46.20;;;;;;5055125;28;20046;-88
2021/06/06 12:18:33;;;;;;;2.08;1.88;;;30.30;45.10;;;;;;5054689;28;20024;-88
2021/06/06 12:21:05;;;;;;;2.25;1.63;;;30.10;44.80;;;;;;5055747;28;20017;-88
2021/06/06 12:23:46;;;;;;;1.98;1.40;;;29.40;45.50;;;;;;5053274;28;20490;-88
2021/06/06 12:26:30;;;;;;;4.13;1.80;;;30.50;44.80;;;;;;5053384;28;20170;-88
2021/06/06 12:28:57;;;;;;;2.05;1.48;;;30.50;43.80;;;;;;5053775;28;20025;-88
2021/06/06 12:31:43;;;;;;;2.30;1.40;;;31.20;43.50;;;;;;5054910;28;20123;-88
2021/06/06 12:34:30;;;;;;;1.10;0.98;;;31.20;41.50;;;;;;5056639;28;20037;-88
2021/06/06 12:37:02;;;;;;;0.93;0.80;;;31.00;42.70;;;;;;5054041;28;20120;-88
2021/06/06 12:39:29;;;;;;;1.67;1.10;;;30.80;43.60;;;;;;5055386;28;20029;-88
2021/06/06 12:41:59;;;;;;;2.58;1.05;;;29.80;43.10;;;;;;5053425;28;20110;-88
2021/06/06 12:44:34;;;;;;;2.25;0.95;;;29.70;44.90;;;;;;5054935;28;20171;-89
2021/06/06 12:47:04;;;;;;;1.65;0.90;;;30.10;44.20;;;;;;5056054;28;20029;-88
2021/06/06 12:49:41;;;;;;;2.15;0.80;;;30.20;43.70;;;;;;5057561;28;20416;-88
2021/06/06 12:52:21;;;;;;;0.90;0.73;;;29.70;42.40;;;;;;5056022;28;20025;-88
2021/06/06 12:54:51;;;;;;;2.13;0.68;;;29.60;42.60;;;;;;5055803;28;20039;-88